Time;durP1;ratioP1;P1;durP2;ratioP2;P2;SDS_P1;SDS_P2;PMS_P1;PMS_P2;Temp;Humidity;BMP_temperature;BMP_pressure;BME280_temperature;BME280_humidity;BME280_pressure;Samples;Min_cycle;Max_cycle;Signal;HPM_P1;HPM_P2
2023/06/22 00:37:35;;;;;;;14.97;10.43;;;17.20;99.90;;;;;;1892818;75;26786;-92
2023/06/22 00:59:19;;;;;;;19.10;9.30;;;17.30;99.90;;;;;;2043182;69;26328;-92
2023/06/22 01:38:40;;;;;;;22.90;8.50;;;17.10;99.90;;;;;;1937344;72;27674;-92
2023/06/22 01:41:30;;;;;;;16.33;8.33;;;17.20;99.90;;;;;;1887305;75;25317;-92
2023/06/22 01:44:19;;;;;;;18.87;8.83;;;17.20;99.90;;;;;;1869878;76;25809;-92
2023/06/22 02:33:12;;;;;;;14.37;6.97;;;17.20;99.90;;;;;;1972667;70;27068;-92
2023/06/22 03:47:12;;;;;;;9.43;5.20;;;17.30;99.90;;;;;;1906743;74;26354;-92
2023/06/22 04:18:49;;;;;;;10.77;4.63;;;18.10;99.90;;;;;;1897363;75;27107;-92
2023/06/22 05:05:37;;;;;;;8.20;3.60;;;20.00;99.90;;;;;;1923466;73;27184;-91
2023/06/22 05:11:06;;;;;;;6.73;3.37;;;20.00;99.90;;;;;;1944368;72;27679;-92
2023/06/22 05:13:55;;;;;;;12.60;3.40;;;20.10;99.90;;;;;;1938114;73;25691;-93
2023/06/22 05:16:45;;;;;;;5.07;2.87;;;20.20;99.90;;;;;;1923152;73;25379;-92
2023/06/22 05:19:34;;;;;;;6.17;3.60;;;20.10;99.90;;;;;;1935392;73;25244;-92
2023/06/22 05:22:23;;;;;;;7.53;3.40;;;20.00;99.90;;;;;;1931523;73;25240;-93
2023/06/22 05:25:16;;;;;;;7.33;3.37;;;20.10;99.90;;;;;;1933320;73;25700;-93
2023/06/22 05:28:10;;;;;;;8.13;3.20;;;20.50;99.90;;;;;;1926967;73;25219;-93
2023/06/22 05:30:55;;;;;;;7.23;3.30;;;20.90;99.90;;;;;;1933600;73;25654;-94
2023/06/22 05:33:44;;;;;;;8.43;3.33;;;20.90;99.90;;;;;;1921814;73;25722;-93
2023/06/22 05:36:33;;;;;;;6.03;3.20;;;20.60;99.90;;;;;;1920605;73;25211;-93
2023/06/22 05:42:23;;;;;;;5.40;2.73;;;21.00;99.90;;;;;;1928834;72;27116;-91
2023/06/22 05:48:06;;;;;;;7.23;3.00;;;20.70;99.90;;;;;;1941465;71;26949;-92
2023/06/22 06:04:11;;;;;;;6.20;4.40;;;21.10;99.90;;;;;;1845647;77;27116;-92
2023/06/22 06:31:42;;;;;;;9.63;3.47;;;21.30;99.90;;;;;;2046808;69;27474;-91
2023/06/22 06:34:31;;;;;;;7.80;4.17;;;21.20;99.90;;;;;;2001137;71;25306;-92
2023/06/22 06:37:19;;;;;;;8.70;4.50;;;21.40;99.90;;;;;;1987617;71;25245;-92
2023/06/22 06:43:02;;;;;;;9.87;4.93;;;21.30;99.90;;;;;;1982485;71;27015;-91
2023/06/22 06:45:51;;;;;;;7.70;3.97;;;21.80;99.90;;;;;;1920208;73;25179;-91
2023/06/22 06:48:40;;;;;;;12.57;5.87;;;21.90;99.90;;;;;;1927679;73;25711;-91
2023/06/22 06:51:29;;;;;;;8.43;6.50;;;21.70;99.90;;;;;;1928808;73;25912;-91
2023/06/22 06:54:20;;;;;;;11.83;7.50;;;21.30;99.90;;;;;;1946784;73;25755;-91
2023/06/22 06:57:10;;;;;;;10.80;5.17;;;21.60;99.90;;;;;;1920716;73;25227;-91
2023/06/22 06:59:59;;;;;;;10.00;5.77;;;21.40;99.90;;;;;;1941445;73;25163;-92
2023/06/22 07:02:48;;;;;;;6.30;4.27;;;21.60;99.90;;;;;;1925277;73;25760;-91
2023/06/22 07:05:37;;;;;;;7.97;3.07;;;21.80;99.90;;;;;;1916542;73;25295;-92
2023/06/22 07:08:27;;;;;;;6.50;4.53;;;21.90;99.90;;;;;;1927585;73;25228;-92
2023/06/22 07:11:15;;;;;;;4.07;3.03;;;22.10;99.90;;;;;;1937703;73;25236;-92
2023/06/22 07:14:04;;;;;;;6.70;4.50;;;21.90;99.90;;;;;;1941486;73;25205;-91
2023/06/22 07:16:53;;;;;;;8.97;4.80;;;21.80;99.90;;;;;;1933427;73;25172;-92
2023/06/22 07:19:43;;;;;;;7.67;5.57;;;21.80;99.90;;;;;;1924127;73;25727;-92
2023/06/22 07:22:32;;;;;;;7.83;5.13;;;21.90;99.90;;;;;;1922076;73;25212;-91
2023/06/22 07:57:33;;;;;;;15.27;5.47;;;22.30;99.90;;;;;;1940297;72;27589;-91
2023/06/22 08:00:20;;;;;;;7.77;4.80;;;22.40;99.90;;;;;;1965265;71;25163;-91
2023/06/22 08:03:08;;;;;;;6.60;5.03;;;22.80;99.90;;;;;;1970685;72;25698;-91
2023/06/22 08:05:57;;;;;;;6.77;4.07;;;23.00;99.90;;;;;;1972403;71;25903;-92
2023/06/22 08:08:47;;;;;;;6.30;4.63;;;23.10;99.90;;;;;;1968295;73;25232;-91
2023/06/22 08:11:36;;;;;;;3.90;2.60;;;23.10;99.90;;;;;;1969932;71;25204;-92
2023/06/22 08:14:26;;;;;;;3.50;2.30;;;23.10;99.90;;;;;;1922787;73;25280;-92
2023/06/22 08:34:05;;;;;;;3.73;2.40;;;23.40;99.90;;;;;;1909929;74;27036;-92
2023/06/22 08:36:54;;;;;;;3.37;2.40;;;23.20;99.90;;;;;;1852350;76;25334;-92
2023/06/22 08:39:43;;;;;;;7.93;2.50;;;23.30;99.90;;;;;;1870691;76;25269;-91
2023/06/22 08:42:32;;;;;;;5.10;2.50;;;23.20;99.90;;;;;;1880794;75;25278;-91
2023/06/22 09:00:16;;;;;;;2.50;2.30;;;23.30;99.90;;;;;;1914604;73;27337;-90
2023/06/22 09:17:02;;;;;;;3.73;2.50;;;23.50;99.90;;;;;;1903306;74;26476;-92
2023/06/22 09:22:43;;;;;;;3.77;2.20;;;23.80;99.90;;;;;;1961945;72;27351;-92
2023/06/22 09:25:32;;;;;;;2.80;1.97;;;23.80;99.90;;;;;;1941324;72;25763;-91
2023/06/22 10:16:08;;;;;;;6.00;2.23;;;24.10;99.90;;;;;;1910413;74;27028;-90
2023/06/22 10:21:50;;;;;;;5.83;2.20;;;24.40;99.90;;;;;;1953903;72;26890;-91
2023/06/22 10:24:44;;;;;;;2.83;2.10;;;24.60;99.90;;;;;;1945713;72;25223;-91
2023/06/22 10:27:29;;;;;;;7.00;2.40;;;24.70;99.90;;;;;;1919997;73;25699;-92
2023/06/22 10:30:17;;;;;;;2.53;2.20;;;24.70;99.90;;;;;;1941030;72;25244;-91
2023/06/22 10:33:06;;;;;;;4.07;1.93;;;24.60;99.90;;;;;;1929827;72;25212;-91
2023/06/22 10:35:56;;;;;;;4.37;2.00;;;24.70;99.90;;;;;;1932046;72;25323;-91
2023/06/22 10:38:46;;;;;;;2.63;1.90;;;24.60;99.90;;;;;;1935140;73;25240;-91
2023/06/22 10:44:33;;;;;;;2.90;2.07;;;24.10;99.90;;;;;;1945199;71;27139;-92
2023/06/22 10:47:22;;;;;;;4.40;2.00;;;24.10;99.90;;;;;;1898345;75;25710;-91
2023/06/22 10:50:11;;;;;;;5.30;2.10;;;24.20;99.90;;;;;;1875902;75;25793;-91
2023/06/22 10:53:01;;;;;;;3.60;2.20;;;24.30;99.90;;;;;;1902461;75;25225;-91
2023/06/22 10:55:49;;;;;;;2.63;2.10;;;24.60;99.90;;;;;;1911698;74;25248;-91
2023/06/22 10:58:38;;;;;;;4.67;2.20;;;24.50;99.90;;;;;;1924903;72;25572;-91
2023/06/22 11:17:21;;;;;;;4.03;2.50;;;24.70;99.90;;;;;;1920519;73;26466;-91
2023/06/22 11:23:03;;;;;;;3.70;2.17;;;25.00;99.90;;;;;;1945500;72;26948;-92
2023/06/22 11:28:44;;;;;;;3.00;2.20;;;25.20;99.90;;;;;;1949377;72;26942;-90
2023/06/22 12:19:07;;;;;;;3.20;2.40;;;25.20;99.90;;;;;;2017705;69;27082;-90
2023/06/22 12:24:37;;;;;;;5.63;2.20;;;25.70;99.90;;;;;;1934775;72;27063;-92
2023/06/22 12:27:26;;;;;;;2.77;1.67;;;25.10;99.90;;;;;;1912421;73;25719;-91
2023/06/22 12:30:15;;;;;;;4.30;1.73;;;25.00;99.90;;;;;;1904126;73;25197;-91
2023/06/22 12:33:05;;;;;;;2.63;1.60;;;24.80;99.90;;;;;;1911861;73;25179;-91
2023/06/22 12:35:54;;;;;;;3.77;3.30;;;24.70;99.90;;;;;;1900761;73;25173;-91
2023/06/22 12:38:43;;;;;;;2.73;2.53;;;25.00;99.90;;;;;;1868801;75;25260;-92
2023/06/22 12:41:32;;;;;;;8.23;2.90;;;25.40;99.90;;;;;;1904431;74;25351;-93
2023/06/22 12:44:20;;;;;;;2.50;2.30;;;25.60;99.90;;;;;;1892711;75;25253;-93
2023/06/22 12:47:10;;;;;;;5.27;2.30;;;25.80;99.90;;;;;;1900217;75;25174;-92
2023/06/22 12:49:58;;;;;;;4.83;2.30;;;25.70;99.90;;;;;;1904949;75;25312;-93
2023/06/22 12:58:01;;;;;;;1.80;1.70;;;25.80;99.90;;;;;;2066745;68;27080;-90
2023/06/22 13:00:51;;;;;;;3.27;1.50;;;25.30;99.90;;;;;;2008013;71;25243;-91
2023/06/22 13:03:39;;;;;;;2.00;1.80;;;25.00;99.90;;;;;;2015887;71;25253;-92
2023/06/22 13:06:28;;;;;;;3.90;3.20;;;25.30;99.90;;;;;;2011072;71;25176;-92
2023/06/22 13:09:19;;;;;;;2.80;2.50;;;25.30;99.90;;;;;;2012940;71;25316;-91
2023/06/22 13:12:09;;;;;;;2.97;2.67;;;25.30;99.90;;;;;;2010059;71;25215;-91
2023/06/22 13:15:00;;;;;;;5.87;3.23;;;25.30;99.90;;;;;;2011617;71;25270;-91
2023/06/22 13:17:48;;;;;;;8.90;4.10;;;25.60;99.90;;;;;;2009822;71;25215;-91
2023/06/22 13:20:38;;;;;;;5.20;4.07;;;25.60;99.90;;;;;;2013257;71;25203;-92
2023/06/22 13:23:28;;;;;;;3.97;2.50;;;25.90;99.90;;;;;;2013792;69;25672;-91
2023/06/22 15:04:20;;;;;;;1.40;1.30;;;25.40;99.90;;;;;;1853468;73;27203;-92
2023/06/22 15:28:45;;;;;;;1.97;1.50;;;25.10;99.90;;;;;;1872392;75;27671;-93
2023/06/22 17:18:10;;;;;;;3.43;2.20;;;23.60;99.90;;;;;;1954598;72;27673;-92
2023/06/22 19:10:59;;;;;;;8.70;3.20;;;21.70;99.90;;;;;;1926664;74;25868;-91
2023/06/22 19:13:54;;;;;;;5.40;2.80;;;21.80;99.90;;;;;;1927375;74;25279;-90
2023/06/22 19:16:43;;;;;;;5.07;3.10;;;21.60;99.90;;;;;;1934052;72;25333;-91
2023/06/22 19:19:37;;;;;;;5.97;3.13;;;21.60;99.90;;;;;;1872018;75;25836;-90
2023/06/22 19:23:01;;;;;;;5.40;3.33;;;21.50;99.90;;;;;;1938251;73;25190;-91
2023/06/22 19:25:56;;;;;;;5.10;3.20;;;21.30;99.90;;;;;;1906342;74;25358;-91
2023/06/22 19:29:15;;;;;;;8.67;3.20;;;21.20;99.90;;;;;;1932597;74;25774;-89
2023/06/22 19:32:02;;;;;;;4.80;3.30;;;21.10;99.90;;;;;;1926129;73;25762;-89
2023/06/22 19:35:01;;;;;;;5.10;3.40;;;21.00;99.90;;;;;;1914376;74;25309;-93
2023/06/22 19:37:52;;;;;;;6.50;3.20;;;20.80;99.90;;;;;;1927969;73;25261;-92
2023/06/22 19:41:06;;;;;;;6.00;3.17;;;20.70;99.90;;;;;;1908146;73;25251;-92
2023/06/22 19:43:57;;;;;;;6.57;3.43;;;20.50;99.90;;;;;;1891176;74;25256;-92
2023/06/22 19:46:46;;;;;;;6.60;3.67;;;20.40;99.90;;;;;;1948142;72;25322;-92
2023/06/22 20:23:09;;;;;;;7.93;4.27;;;20.00;99.90;;;;;;2009384;69;26647;-90
2023/06/22 22:00:26;;;;;;;14.03;5.73;;;18.20;99.90;;;;;;1951927;72;27007;-91
2023/06/22 22:03:15;;;;;;;10.13;5.17;;;18.20;99.90;;;;;;1921376;73;25233;-90
2023/06/22 22:06:05;;;;;;;10.53;5.07;;;18.10;99.90;;;;;;1907686;75;25262;-90
2023/06/22 22:08:54;;;;;;;12.70;5.27;;;18.10;99.90;;;;;;1870329;76;25711;-90
2023/06/22 22:11:43;;;;;;;11.47;5.30;;;18.00;99.90;;;;;;1840788;77;25306;-90
2023/06/22 22:14:34;;;;;;;9.57;5.33;;;18.00;99.90;;;;;;1842447;76;25383;-90
2023/06/22 22:17:22;;;;;;;11.70;5.40;;;18.00;99.90;;;;;;1876159;75;25663;-90
2023/06/22 22:20:12;;;;;;;15.43;5.70;;;18.00;99.90;;;;;;1894238;75;25902;-90
2023/06/22 22:23:03;;;;;;;13.57;5.30;;;18.00;99.90;;;;;;1882751;75;25287;-90
2023/06/22 22:25:52;;;;;;;13.20;5.83;;;17.90;99.90;;;;;;1902771;75;25293;-90
2023/06/22 22:28:41;;;;;;;10.10;5.50;;;17.90;99.90;;;;;;1915189;74;25258;-90
2023/06/22 22:31:29;;;;;;;15.87;5.60;;;18.00;99.90;;;;;;1856373;75;25184;-91
2023/06/22 22:37:25;;;;;;;9.87;5.60;;;18.00;99.90;;;;;;2027206;69;29338;-91
2023/06/22 22:40:14;;;;;;;15.23;5.90;;;17.90;99.90;;;;;;1952176;72;25173;-90
2023/06/22 23:44:00;;;;;;;14.67;7.83;;;17.10;99.90;;;;;;1933902;73;27086;-91
2023/06/22 23:46:50;;;;;;;15.00;7.10;;;16.90;99.90;;;;;;1906319;75;25347;-92
2023/06/22 23:49:40;;;;;;;13.00;7.00;;;16.80;99.90;;;;;;1898398;75;25275;-92
2023/06/22 23:52:29;;;;;;;15.00;7.00;;;16.70;99.90;;;;;;1899583;74;25246;-91
2023/06/22 23:55:23;;;;;;;13.63;6.93;;;16.60;99.90;;;;;;1897297;75;25286;-92
2023/06/22 23:58:12;;;;;;;14.63;6.90;;;16.50;99.90;;;;;;1898581;75;25336;-92
